createdAt,value
2022-11-20T00:01:33.832Z,37.80
2022-11-20T00:04:01.447Z,40.83
2022-11-20T00:06:29.795Z,35.43
2022-11-20T00:09:00.952Z,34.70
2022-11-20T00:11:30.633Z,38.60
2022-11-20T00:14:00.770Z,36.95
2022-11-20T00:16:32.454Z,35.58
2022-11-20T00:18:59.645Z,40.42
2022-11-20T00:21:29.709Z,40.83
2022-11-20T00:23:58.360Z,38.95
2022-11-20T00:26:28.779Z,34.35
2022-11-20T00:28:59.449Z,39.95
2022-11-20T00:31:27.585Z,35.92
2022-11-20T00:33:55.253Z,38.50
2022-11-20T00:36:26.487Z,37.22
2022-11-20T00:39:00.455Z,39.10
2022-11-20T00:41:30.486Z,36.03
2022-11-20T00:43:58.400Z,34.33
2022-11-20T00:46:29.350Z,34.63
2022-11-20T00:48:57.232Z,35.85
2022-11-20T00:51:28.417Z,37.78
2022-11-20T00:54:01.329Z,34.25
2022-11-20T00:56:29.529Z,34.72
2022-11-20T00:58:56.937Z,34.20
2022-11-20T01:01:27.323Z,37.67
2022-11-20T01:03:57.827Z,38.80
2022-11-20T01:06:44.570Z,41.10
2022-11-20T01:09:15.109Z,36.08
2022-11-20T01:11:46.679Z,39.60
2022-11-20T01:14:19.415Z,44.03
2022-11-20T01:16:52.894Z,43.55
2022-11-20T01:19:24.856Z,44.35
2022-11-20T01:21:55.197Z,53.88
2022-11-20T01:24:23.624Z,55.40
2022-11-20T01:26:52.527Z,50.95
2022-11-20T01:29:25.320Z,64.78
2022-11-20T01:31:53.790Z,56.97
2022-11-20T01:34:23.522Z,53.05
2022-11-20T01:36:53.966Z,56.60
2022-11-20T01:39:25.625Z,51.75
2022-11-20T01:42:13.460Z,50.15
2022-11-20T01:45:00.946Z,50.63
2022-11-20T01:47:45.916Z,49.70
2022-11-20T01:50:29.980Z,45.33
2022-11-20T01:53:08.261Z,39.45
2022-11-20T01:55:44.570Z,40.65
2022-11-20T01:58:12.852Z,40.17
2022-11-20T02:00:41.232Z,36.13
2022-11-20T02:06:49.116Z,36.85
2022-11-20T02:09:16.782Z,38.22
2022-11-20T02:11:44.465Z,42.22
2022-11-20T02:14:12.561Z,37.85
2022-11-20T02:16:46.751Z,38.78
2022-11-20T02:19:34.817Z,39.95
2022-11-20T02:22:31.558Z,41.55
2022-11-20T02:25:03.355Z,39.38
2022-11-20T02:27:31.169Z,37.35
2022-11-20T02:30:06.578Z,38.05
2022-11-20T02:32:37.065Z,39.08
2022-11-20T02:35:19.514Z,41.58
2022-11-20T02:37:51.362Z,42.10
2022-11-20T02:40:18.902Z,38.65
2022-11-20T02:42:46.135Z,39.72
2022-11-20T02:45:13.465Z,41.85
2022-11-20T02:47:40.728Z,43.67
2022-11-20T02:50:08.305Z,45.53
2022-11-20T02:52:35.575Z,45.70
2022-11-20T02:55:03.236Z,43.67
2022-11-20T02:57:30.510Z,43.25
2022-11-20T02:59:57.935Z,44.40
2022-11-20T03:02:25.134Z,48.25
2022-11-20T03:04:52.354Z,44.92
2022-11-20T03:07:19.772Z,50.13
2022-11-20T03:09:47.302Z,46.20
2022-11-20T03:12:15.203Z,53.17
2022-11-20T03:14:42.346Z,51.42
2022-11-20T03:17:09.607Z,55.08
2022-11-20T03:19:37.118Z,50.10
2022-11-20T03:22:04.491Z,55.60
2022-11-20T03:24:31.773Z,47.53
2022-11-20T03:26:59.461Z,49.75
2022-11-20T03:29:27.177Z,55.75
2022-11-20T03:31:54.418Z,57.53
2022-11-20T03:34:21.798Z,46.15
2022-11-20T03:36:49.100Z,51.85
2022-11-20T03:39:16.713Z,49.63
2022-11-20T03:41:44.515Z,53.27
2022-11-20T03:44:12.895Z,49.25
2022-11-20T03:49:08.017Z,48.95
2022-11-20T03:51:37.267Z,50.83
2022-11-20T03:54:09.072Z,50.38
2022-11-20T03:56:39.461Z,53.00
2022-11-20T03:59:07.839Z,53.83
2022-11-20T04:04:06.959Z,44.05
2022-11-20T04:06:39.299Z,51.72
2022-11-20T04:09:07.560Z,50.30
2022-11-20T04:11:38.079Z,48.97
2022-11-20T04:14:12.962Z,45.08
2022-11-20T04:16:40.164Z,47.58
2022-11-20T04:19:13.354Z,50.92
2022-11-20T04:21:41.056Z,58.03
2022-11-20T04:24:09.301Z,51.05
2022-11-20T04:26:36.561Z,50.10
2022-11-20T04:29:04.724Z,46.10
2022-11-20T04:31:35.680Z,55.13
2022-11-20T04:34:05.906Z,54.42
2022-11-20T04:36:34.486Z,55.75
2022-11-20T04:39:05.767Z,54.15
2022-11-20T04:41:37.041Z,67.32
2022-11-20T04:44:06.653Z,64.07
2022-11-20T04:46:43.596Z,73.68
2022-11-20T04:49:12.965Z,68.22
2022-11-20T04:51:40.530Z,77.35
2022-11-20T04:54:07.716Z,78.30
2022-11-20T04:56:35.021Z,77.95
2022-11-20T04:59:03.820Z,73.65
2022-11-20T05:01:31.853Z,80.93
2022-11-20T05:03:59.174Z,69.93
2022-11-20T05:06:26.541Z,72.88
2022-11-20T05:08:53.702Z,80.78
2022-11-20T05:11:22.513Z,79.25
2022-11-20T05:13:52.269Z,72.05
2022-11-20T05:16:23.700Z,70.45
2022-11-20T05:18:53.837Z,69.60
2022-11-20T05:21:22.326Z,63.63
2022-11-20T05:26:22.972Z,63.88
2022-11-20T05:28:51.562Z,63.40
2022-11-20T05:31:27.823Z,59.25
2022-11-20T05:33:58.032Z,61.90
2022-11-20T05:36:25.600Z,55.47
2022-11-20T05:38:56.723Z,55.15
2022-11-20T05:41:27.237Z,60.08
2022-11-20T05:43:54.464Z,64.00
2022-11-20T05:46:28.132Z,66.57
2022-11-20T05:48:56.795Z,58.92
2022-11-20T05:51:24.771Z,57.38
2022-11-20T05:53:51.982Z,58.03
2022-11-20T05:56:22.150Z,63.15
2022-11-20T05:58:50.739Z,61.72
2022-11-20T06:01:24.689Z,59.50
2022-11-20T06:03:54.253Z,54.05
2022-11-20T06:06:22.461Z,52.83
2022-11-20T06:08:51.305Z,56.22
2022-11-20T06:11:19.319Z,61.65
2022-11-20T06:13:47.724Z,58.15
2022-11-20T06:16:19.867Z,58.42
2022-11-20T06:18:47.882Z,57.83
2022-11-20T06:21:21.928Z,51.28
2022-11-20T06:23:51.336Z,63.55
2022-11-20T06:26:25.817Z,56.50
2022-11-20T06:28:54.471Z,58.47
2022-11-20T06:31:25.572Z,59.25
2022-11-20T06:33:54.105Z,55.72
2022-11-20T06:38:51.884Z,54.63
2022-11-20T06:41:23.494Z,65.00
2022-11-20T06:43:51.394Z,59.55
2022-11-20T06:46:20.590Z,56.17
2022-11-20T06:48:50.085Z,53.97
2022-11-20T06:51:17.937Z,57.60
2022-11-20T06:53:45.260Z,59.00
2022-11-20T06:56:12.486Z,60.20
2022-11-20T06:58:39.997Z,64.72
2022-11-20T07:01:14.657Z,59.85
2022-11-20T07:03:43.751Z,58.50
2022-11-20T07:06:11.958Z,65.95
2022-11-20T07:08:39.253Z,56.78
2022-11-20T07:11:09.082Z,65.00
2022-11-20T07:13:36.558Z,66.75
2022-11-20T07:16:07.540Z,57.83
2022-11-20T07:18:35.457Z,46.92
2022-11-20T07:21:06.195Z,46.08
2022-11-20T07:23:33.394Z,45.33
2022-11-20T07:26:09.777Z,38.53
2022-11-20T07:28:37.884Z,37.35
2022-11-20T07:31:06.056Z,41.08
2022-11-20T07:33:33.542Z,40.17
2022-11-20T07:36:02.191Z,36.17
2022-11-20T07:38:30.096Z,37.58
2022-11-20T07:41:02.657Z,36.03
2022-11-20T07:43:30.921Z,36.38
2022-11-20T07:45:59.642Z,40.55
2022-11-20T07:48:27.378Z,36.60
2022-11-20T07:50:56.963Z,35.50
2022-11-20T07:53:27.192Z,35.20
2022-11-20T07:55:54.768Z,40.30
2022-11-20T07:58:22.781Z,36.70
2022-11-20T08:00:50.409Z,34.88
2022-11-20T08:03:24.076Z,40.05
2022-11-20T08:05:51.509Z,41.47
2022-11-20T08:08:18.998Z,38.88
2022-11-20T08:10:46.514Z,35.07
2022-11-20T08:13:32.164Z,34.80
2022-11-20T08:15:59.347Z,36.33
2022-11-20T08:18:31.625Z,36.80
2022-11-20T08:21:05.125Z,39.45
2022-11-20T08:23:32.540Z,36.40
2022-11-20T08:25:59.881Z,33.90
2022-11-20T08:28:27.155Z,33.53
2022-11-20T08:31:04.902Z,34.70
2022-11-20T08:33:33.778Z,36.78
2022-11-20T08:36:03.490Z,37.08
2022-11-20T08:38:31.621Z,34.38
2022-11-20T08:41:23.487Z,33.28
2022-11-20T08:43:53.071Z,36.70
2022-11-20T08:46:21.114Z,45.13
2022-11-20T08:48:48.940Z,39.67
2022-11-20T08:51:17.256Z,45.38
2022-11-20T08:53:44.731Z,47.88
2022-11-20T08:56:12.372Z,52.97
2022-11-20T08:59:09.912Z,45.85
2022-11-20T09:01:29.262Z,52.65
2022-11-20T09:03:58.364Z,52.63
2022-11-20T09:06:25.852Z,47.17
2022-11-20T09:08:55.189Z,49.33
2022-11-20T09:11:23.136Z,47.50
2022-11-20T09:13:50.771Z,48.05
2022-11-20T09:16:18.062Z,47.33
2022-11-20T09:18:45.368Z,43.42
2022-11-20T09:21:15.281Z,47.55
2022-11-20T09:23:42.681Z,48.42
2022-11-20T09:26:14.926Z,52.47
2022-11-20T09:28:42.748Z,56.28
2022-11-20T09:31:24.057Z,56.78
2022-11-20T09:33:51.764Z,52.80
2022-11-20T09:36:19.749Z,57.15
2022-11-20T09:38:47.775Z,57.05
2022-11-20T09:41:39.126Z,53.90
2022-11-20T09:44:29.856Z,54.97
2022-11-20T09:47:11.126Z,53.33
2022-11-20T09:50:44.426Z,51.45
2022-11-20T09:53:51.717Z,60.95
2022-11-20T09:56:22.829Z,49.25
2022-11-20T09:58:56.365Z,48.00
2022-11-20T10:01:32.684Z,48.83
2022-11-20T10:04:04.111Z,47.13
2022-11-20T10:07:30.383Z,50.53
2022-11-20T10:09:55.926Z,48.80
2022-11-20T10:12:25.851Z,49.30
2022-11-20T10:15:03.487Z,49.80
2022-11-20T10:17:58.642Z,52.35
2022-11-20T10:20:59.619Z,49.45
2022-11-20T10:23:57.271Z,51.85
2022-11-20T10:26:40.385Z,48.20
2022-11-20T10:29:23.311Z,57.45
2022-11-20T10:32:00.888Z,55.75
2022-11-20T10:35:01.952Z,54.67
2022-11-20T10:37:34.163Z,49.22
2022-11-20T10:40:49.027Z,121.75
2022-11-20T10:43:34.252Z,73.80
2022-11-20T10:46:22.745Z,62.70
2022-11-20T10:48:51.178Z,65.25
2022-11-20T10:54:40.203Z,58.90
2022-11-20T10:58:04.254Z,57.92
2022-11-20T11:00:34.684Z,61.10
2022-11-20T11:03:05.173Z,53.88
2022-11-20T11:05:56.500Z,56.65
2022-11-20T11:08:29.357Z,57.38
2022-11-20T11:11:02.500Z,68.03
2022-11-20T11:13:32.911Z,61.63
2022-11-20T11:16:00.285Z,57.97
2022-11-20T11:18:37.370Z,58.65
2022-11-20T11:21:06.369Z,55.42
2022-11-20T11:23:42.334Z,53.20
2022-11-20T11:26:25.923Z,58.72
2022-11-20T11:29:01.909Z,52.10
2022-11-20T11:31:34.929Z,61.78
2022-11-20T11:34:17.217Z,56.20
2022-11-20T11:36:58.445Z,53.17
2022-11-20T11:39:29.601Z,49.05
2022-11-20T11:41:59.237Z,52.10
2022-11-20T11:44:54.410Z,52.28
2022-11-20T11:47:32.966Z,56.90
2022-11-20T11:50:23.367Z,52.17
2022-11-20T11:53:20.619Z,57.33
2022-11-20T11:56:14.598Z,52.40
2022-11-20T11:58:47.838Z,52.15
2022-11-20T12:01:39.938Z,50.38
2022-11-20T12:04:18.365Z,56.58
2022-11-20T12:06:54.650Z,52.88
2022-11-20T12:09:35.598Z,50.65
2022-11-20T12:12:31.148Z,50.72
2022-11-20T12:14:59.639Z,51.42
2022-11-20T12:17:26.938Z,46.13
2022-11-20T12:19:54.291Z,50.75
2022-11-20T12:22:41.770Z,50.28
2022-11-20T12:25:26.481Z,47.70
2022-11-20T12:28:18.485Z,49.47
2022-11-20T12:31:14.771Z,52.75
2022-11-20T12:33:53.702Z,50.70
2022-11-20T12:37:08.895Z,52.90
2022-11-20T12:39:42.584Z,51.30
2022-11-20T12:43:02.852Z,49.17
2022-11-20T12:46:07.247Z,56.78
2022-11-20T12:48:54.182Z,56.55
2022-11-20T12:51:34.253Z,51.67
2022-11-20T12:54:47.183Z,59.55
2022-11-20T12:57:35.975Z,49.03
2022-11-20T13:00:17.314Z,49.15
2022-11-20T13:03:33.003Z,49.40
2022-11-20T13:06:18.794Z,51.42
2022-11-20T13:09:12.118Z,52.35
2022-11-20T13:12:03.164Z,52.72
2022-11-20T13:14:38.726Z,46.95
2022-11-20T13:17:36.988Z,50.72
2022-11-20T13:20:13.507Z,43.35
2022-11-20T13:22:53.215Z,48.00
2022-11-20T13:25:36.129Z,49.13
2022-11-20T13:28:12.390Z,45.53
2022-11-20T13:30:53.899Z,49.42
2022-11-20T13:33:31.683Z,49.50
2022-11-20T13:36:07.700Z,45.67
2022-11-20T13:39:04.445Z,52.53
2022-11-20T13:41:38.913Z,48.83
2022-11-20T13:44:42.743Z,44.45
2022-11-20T13:47:25.021Z,49.35
2022-11-20T13:49:55.962Z,45.38
2022-11-20T13:52:32.185Z,44.65
2022-11-20T13:55:26.558Z,46.08
2022-11-20T13:58:20.431Z,46.28
2022-11-20T14:00:58.910Z,58.67
2022-11-20T14:04:04.447Z,44.22
2022-11-20T14:06:44.261Z,45.30
2022-11-20T14:09:29.338Z,42.28
2022-11-20T14:11:56.900Z,41.05
2022-11-20T14:14:30.549Z,42.65
2022-11-20T14:17:30.163Z,43.67
2022-11-20T14:20:07.758Z,47.75
2022-11-20T14:22:34.991Z,49.47
2022-11-20T14:25:17.512Z,48.13
2022-11-20T14:27:52.310Z,44.13
2022-11-20T14:30:46.318Z,43.30
2022-11-20T14:33:15.837Z,41.30
2022-11-20T14:35:53.437Z,43.47
2022-11-20T14:38:27.878Z,53.15
2022-11-20T14:40:55.299Z,44.20
2022-11-20T14:43:29.858Z,48.15
2022-11-20T14:46:11.110Z,43.22
2022-11-20T14:48:57.358Z,44.38
2022-11-20T14:51:42.656Z,45.88
2022-11-20T14:54:23.703Z,45.15
2022-11-20T14:57:02.761Z,45.58
2022-11-20T14:59:33.889Z,56.65
2022-11-20T15:02:12.905Z,46.50
2022-11-20T15:05:00.650Z,45.65
2022-11-20T15:07:38.990Z,56.58
2022-11-20T15:10:13.063Z,69.05
2022-11-20T15:12:48.723Z,47.40
2022-11-20T15:15:51.017Z,48.70
2022-11-20T15:18:29.569Z,56.03
2022-11-20T15:20:59.945Z,46.97
2022-11-20T15:23:28.892Z,53.97
2022-11-20T15:25:57.088Z,47.40
2022-11-20T15:28:38.177Z,50.65
2022-11-20T15:31:05.861Z,62.05
2022-11-20T15:33:34.870Z,56.28
2022-11-20T15:36:02.492Z,51.55
2022-11-20T15:38:29.846Z,48.95
2022-11-20T15:40:57.729Z,56.47
2022-11-20T15:43:25.549Z,56.03
2022-11-20T15:46:00.218Z,63.33
2022-11-20T15:48:30.757Z,57.40
2022-11-20T15:51:13.860Z,51.03
2022-11-20T15:53:42.780Z,50.30
2022-11-20T15:56:15.230Z,57.20
2022-11-20T15:58:42.872Z,52.38
2022-11-20T16:01:14.270Z,62.05
2022-11-20T16:03:42.335Z,57.50
2022-11-20T16:06:09.871Z,55.28
2022-11-20T16:08:37.093Z,58.97
2022-11-20T16:11:05.366Z,58.08
2022-11-20T16:16:33.361Z,65.55
2022-11-20T16:19:01.379Z,59.17
2022-11-20T16:21:32.371Z,72.65
2022-11-20T16:24:06.800Z,71.40
2022-11-20T16:26:35.179Z,70.85
2022-11-20T16:31:31.463Z,67.57
2022-11-20T16:34:05.871Z,69.22
2022-11-20T16:36:40.695Z,66.75
2022-11-20T16:39:09.676Z,70.63
2022-11-20T16:41:37.406Z,66.03
2022-11-20T16:44:10.734Z,62.55
2022-11-20T16:46:39.003Z,66.35
2022-11-20T16:49:12.610Z,68.13
2022-11-20T16:51:40.143Z,65.50
2022-11-20T16:54:09.782Z,70.43
2022-11-20T16:56:38.137Z,60.42
2022-11-20T16:59:05.811Z,67.95
2022-11-20T17:01:34.285Z,69.60
2022-11-20T17:04:07.459Z,64.32
2022-11-20T17:06:41.086Z,65.55
2022-11-20T17:09:09.712Z,62.72
2022-11-20T17:11:37.490Z,56.58
2022-11-20T17:14:07.587Z,60.40
2022-11-20T17:16:37.098Z,60.13
2022-11-20T17:19:05.528Z,64.25
2022-11-20T17:21:36.656Z,55.88
2022-11-20T17:24:11.272Z,63.03
2022-11-20T17:26:41.088Z,54.70
2022-11-20T17:29:15.815Z,59.83
2022-11-20T17:31:44.699Z,66.40
2022-11-20T17:34:15.827Z,62.47
2022-11-20T17:36:47.461Z,61.38
2022-11-20T17:39:17.553Z,64.18
2022-11-20T17:41:45.376Z,65.95
2022-11-20T17:44:13.615Z,59.67
2022-11-20T17:46:41.207Z,62.53
2022-11-20T17:49:08.844Z,63.05
2022-11-20T17:51:36.393Z,60.75
2022-11-20T17:54:07.632Z,71.35
2022-11-20T17:56:54.194Z,69.45
2022-11-20T17:59:22.767Z,68.68
2022-11-20T18:01:50.580Z,65.30
2022-11-20T18:04:18.230Z,69.75
2022-11-20T18:06:45.768Z,75.20
2022-11-20T18:09:13.119Z,63.92
2022-11-20T18:11:42.849Z,62.20
2022-11-20T18:14:34.885Z,74.15
2022-11-20T18:17:12.343Z,66.03
2022-11-20T18:20:07.211Z,67.57
2022-11-20T18:22:35.087Z,63.15
2022-11-20T18:25:03.217Z,66.18
2022-11-20T18:27:30.527Z,68.70
2022-11-20T18:29:57.813Z,64.30
2022-11-20T18:32:25.322Z,69.03
2022-11-20T18:34:52.924Z,63.40
2022-11-20T18:37:20.582Z,72.28
2022-11-20T18:39:49.687Z,65.38
2022-11-20T18:42:36.178Z,65.80
2022-11-20T18:45:05.159Z,66.57
2022-11-20T18:47:38.115Z,69.75
2022-11-20T18:50:08.608Z,71.35
2022-11-20T18:52:44.805Z,76.05
2022-11-20T18:55:13.106Z,68.57
2022-11-20T18:57:43.604Z,71.50
2022-11-20T19:00:15.654Z,76.75
2022-11-20T19:02:43.799Z,76.80
2022-11-20T19:05:16.442Z,78.30
2022-11-20T19:07:47.145Z,80.60
2022-11-20T19:10:14.709Z,76.97
2022-11-20T19:12:41.941Z,83.90
2022-11-20T19:15:09.692Z,77.83
2022-11-20T19:17:37.190Z,82.68
2022-11-20T19:20:05.279Z,85.28
2022-11-20T19:22:32.688Z,82.05
2022-11-20T19:25:00.161Z,83.15
2022-11-20T19:27:27.512Z,76.03
2022-11-20T19:29:58.888Z,75.82
2022-11-20T19:32:26.450Z,77.45
2022-11-20T19:34:53.677Z,75.53
2022-11-20T19:37:21.073Z,54.35
2022-11-20T19:39:48.488Z,55.60
2022-11-20T19:42:16.550Z,77.68
2022-11-20T19:44:43.914Z,87.30
2022-11-20T19:47:14.407Z,68.93
2022-11-20T19:49:42.433Z,72.35
2022-11-20T19:52:09.742Z,71.22
2022-11-20T19:54:37.097Z,70.60
2022-11-20T19:57:04.413Z,72.20
2022-11-20T19:59:31.865Z,69.35
2022-11-20T20:01:59.168Z,70.20
2022-11-20T20:04:27.250Z,72.60
2022-11-20T20:06:54.917Z,62.45
2022-11-20T20:09:24.752Z,71.07
2022-11-20T20:11:52.353Z,75.90
2022-11-20T20:14:20.137Z,70.30
2022-11-20T20:16:47.596Z,70.13
2022-11-20T20:19:16.741Z,80.57
2022-11-20T20:21:44.698Z,74.75
2022-11-20T20:24:12.559Z,71.22
2022-11-20T20:26:40.799Z,77.38
2022-11-20T20:29:08.175Z,69.50
2022-11-20T20:31:35.947Z,74.88
2022-11-20T20:34:05.436Z,80.57
2022-11-20T20:36:33.438Z,80.85
2022-11-20T20:39:02.806Z,75.72
2022-11-20T20:41:30.938Z,70.32
2022-11-20T20:44:17.120Z,72.78
2022-11-20T20:46:44.381Z,68.53
2022-11-20T20:49:12.519Z,73.28
2022-11-20T20:51:39.965Z,71.97
2022-11-20T20:54:07.279Z,70.83
2022-11-20T20:56:34.592Z,79.57
2022-11-20T20:59:03.276Z,74.93
2022-11-20T21:01:30.894Z,78.35
2022-11-20T21:03:58.724Z,76.67
2022-11-20T21:06:26.907Z,86.97
2022-11-20T21:08:56.019Z,77.72
2022-11-20T21:11:23.566Z,76.68
2022-11-20T21:13:50.893Z,78.40
2022-11-20T21:16:23.717Z,77.38
2022-11-20T21:18:51.238Z,71.43
2022-11-20T21:21:37.279Z,74.82
2022-11-20T21:24:05.180Z,72.88
2022-11-20T21:26:32.608Z,74.43
2022-11-20T21:28:59.872Z,73.10
2022-11-20T21:31:28.735Z,71.93
2022-11-20T21:33:57.307Z,70.13
2022-11-20T21:36:28.146Z,70.15
2022-11-20T21:38:57.761Z,78.82
2022-11-20T21:41:28.075Z,76.05
2022-11-20T21:46:46.557Z,74.85
2022-11-20T21:49:15.332Z,76.30
2022-11-20T21:51:42.588Z,75.63
2022-11-20T21:54:11.761Z,71.72
2022-11-20T21:56:39.285Z,74.60
2022-11-20T21:59:06.499Z,80.90
2022-11-20T22:01:33.935Z,80.65
2022-11-20T22:04:02.936Z,75.27
2022-11-20T22:06:33.562Z,79.60
2022-11-20T22:09:03.251Z,72.20
2022-11-20T22:11:30.752Z,77.70
2022-11-20T22:14:17.453Z,72.50
2022-11-20T22:16:45.834Z,75.80
2022-11-20T22:19:17.236Z,77.30
2022-11-20T22:21:45.266Z,75.78
2022-11-20T22:24:15.491Z,73.50
2022-11-20T22:26:43.643Z,79.03
2022-11-20T22:29:20.947Z,71.50
2022-11-20T22:31:51.020Z,76.57
2022-11-20T22:34:18.187Z,75.78
2022-11-20T22:36:45.789Z,74.00
2022-11-20T22:39:13.190Z,79.70
2022-11-20T22:41:40.598Z,75.73
2022-11-20T22:44:09.175Z,76.38
2022-11-20T22:46:38.322Z,77.22
2022-11-20T22:49:08.827Z,79.53
2022-11-20T22:51:39.916Z,74.80
2022-11-20T22:54:08.107Z,76.57
2022-11-20T22:56:35.658Z,73.30
2022-11-20T22:59:03.946Z,80.18
2022-11-20T23:01:34.463Z,69.95
2022-11-20T23:04:12.131Z,78.18
2022-11-20T23:06:40.534Z,75.13
2022-11-20T23:09:09.727Z,80.55
2022-11-20T23:11:37.305Z,75.15
2022-11-20T23:14:08.576Z,76.53
2022-11-20T23:16:36.015Z,71.75
2022-11-20T23:19:08.572Z,68.13
2022-11-20T23:21:38.486Z,73.80
2022-11-20T23:24:06.926Z,73.32
2022-11-20T23:29:06.918Z,79.97
2022-11-20T23:31:36.209Z,78.47
2022-11-20T23:34:04.773Z,81.57
2022-11-20T23:36:32.690Z,72.05
2022-11-20T23:39:00.068Z,74.22
2022-11-20T23:41:27.402Z,73.73
2022-11-20T23:43:54.812Z,69.53
2022-11-20T23:46:22.382Z,76.80
2022-11-20T23:48:49.856Z,74.77
2022-11-20T23:51:18.055Z,76.85
2022-11-20T23:53:45.394Z,72.28
2022-11-20T23:56:14.843Z,71.43
2022-11-20T23:58:43.298Z,69.80
